Detall de PIREP

Printer-friendly versionPDF version

[2017/04/09 07:27:00]
Flight IATA:CT1004
Pilot Number:012
Company ICAO:CAT
Aircraft Type:A320/E
PAX:150
Departing Airport: BKPR
Destination Airport: LIEA
Alternate Airport:LIEO
Online: VATSIM
Route:SARAX Y500 DISOR UL608 FSK UN128 PEREN UM603 GOKEL MOKTO LUNAR ISKIA UNIXO ROXAN IDEPA MOROB
Flight Level:F360
No Slew and time accel
No pause
Crash detect
Detect pilot in Cockpit between each 30 and 45 minutes
07:27 Zero fuel Weight: 122262 Lbs, Fuel Weight: 21155 Lbs
07:27 VATSIM:BKPR 090700Z 03004KT 350V050 9999 FEW080 11/03 Q1026 NOSIG
07:27 VATSIM:LIEA 090650Z 02005KT 350V060 6000 BCFG FEW001 13/12 Q1024
07:27 EASTER CHARTER
07:27 Parking Brakes off
07:32 Take-off
07:32 Take off Weight: 142725 Lbs
07:32 Wind: 357º @ 001 Knots Heading: 175º
07:32 POS N42º 34´ 00´´ E021º 02´ 11´´
07:32 Flaps:3 at 165 Knots
07:32 Gear Up: 166 Knots
07:32 Flaps:2 at 174 Knots
07:32 Flaps:0 at 186 Knots
07:47 Wind:333º@020 Knots Heading: 120º Ground Speed: 473 Knots Altitude 32362 ft
07:49 TOC
07:49 Fuel Weight: 16428 Lb
08:02 Wind:316º@026 Knots Heading: 296º Ground Speed: 425 Knots Altitude 36305 ft
08:17 Wind:301º@021 Knots Heading: 270º Ground Speed: 431 Knots Altitude 36335 ft
08:32 Wind:299º@014 Knots Heading: 274º Ground Speed: 437 Knots Altitude 36292 ft
08:47 Wind:310º@009 Knots Heading: 274º Ground Speed: 442 Knots Altitude 36276 ft
09:02 Wind:043º@003 Knots Heading: 269º Ground Speed: 452 Knots Altitude 36289 ft
09:17 Wind:064º@006 Knots Heading: 272º Ground Speed: 457 Knots Altitude 36322 ft
09:19 TOD
09:19 Fuel Weight: 8286 Lb
09:32 Wind:087º@010 Knots Heading: 264º Ground Speed: 323 Knots Altitude 12427 ft
09:42 Flaps:1 at 192 Knots
09:43 Flaps:3 at 189 Knots
09:44 Flaps:4 at 179 Knots
09:45 Gear Down: 179 Knots
09:45 Flaps:5 at 175 Knots
09:47 Wind:028º@007 Knots Heading: 203º Ground Speed: 137 Knots Altitude 098 ft
09:47 TouchDown:Rate -203 ft/min Speed: 132 Knots
09:47 Flaps:2 at 59 Knots
09:47 VATSIM:LIEA 090920Z 02005KT 340V060 CAVOK 20/12 Q1025
09:47 Land
09:47 Wind:028º@007 Knots
09:47 Heading: 203º
09:47 Flight Duration: 02:15
09:47 Landing Weight: 128736 Lbs
09:47 POS N40º 37´ 54´´ E008º 17´ 26´´
09:49 Parking brakes on
09:49 Block to Block Duration: 02:22
09:49 Final Fuel: 6287 Lbls
09:49 Spent Fuel: 14867 Lbls
09:49 Flight Length: 922 NM
09:49 TOD Land Length: 141 NM

Exportar CSV

Powered by Drupal - Modified by Danger4k